Time;durP1;ratioP1;P1;durP2;ratioP2;P2;SDS_P1;SDS_P2;PMS_P1;PMS_P2;Temp;Humidity;BMP_temperature;BMP_pressure;BME280_temperature;BME280_humidity;BME280_pressure;Samples;Min_cycle;Max_cycle;Signal;HPM_P1;HPM_P2
2021/12/21 00:00:24;;;;;;;25.00;13.02;;;;;;;-2.64;93.58;102153.00;5074623;28;20481;-82
2021/12/21 00:02:54;;;;;;;22.30;12.52;;;;;;;-2.65;93.83;102148.75;5074488;28;20053;-82
2021/12/21 00:05:27;;;;;;;24.00;12.55;;;;;;;-2.74;93.63;102148.97;5074389;28;20102;-83
2021/12/21 00:07:56;;;;;;;25.10;11.95;;;;;;;-2.69;93.90;102134.31;5074332;28;20114;-82
2021/12/21 00:10:28;;;;;;;25.63;12.65;;;;;;;-2.69;93.71;102152.25;5074423;28;20426;-83
2021/12/21 00:13:06;;;;;;;21.55;11.88;;;;;;;-2.68;93.99;102149.66;5074680;28;20056;-83
2021/12/21 00:15:52;;;;;;;24.00;12.07;;;;;;;-2.73;93.81;102148.94;5074905;28;20329;-84
2021/12/21 00:18:28;;;;;;;19.90;12.40;;;;;;;-2.74;93.95;102156.66;5074526;28;20052;-83
2021/12/21 00:21:06;;;;;;;21.70;12.25;;;;;;;-2.82;93.94;102149.13;5074642;28;20041;-83
2021/12/21 00:23:35;;;;;;;24.20;13.18;;;;;;;-2.90;93.93;102139.94;5073487;28;20048;-82
2021/12/21 00:26:05;;;;;;;30.13;12.13;;;;;;;-2.91;93.86;102140.81;5074401;28;20058;-82
2021/12/21 00:28:39;;;;;;;21.60;12.05;;;;;;;-2.96;93.61;102134.97;5074295;28;20054;-83
2021/12/21 00:31:06;;;;;;;21.15;11.93;;;;;;;-3.01;93.33;102143.56;5066890;28;20457;-82
2021/12/21 00:33:38;;;;;;;26.25;12.93;;;;;;;-3.06;93.90;102135.16;5079793;28;20063;-82
2021/12/21 00:36:06;;;;;;;23.13;12.02;;;;;;;-3.06;93.84;102145.38;5083821;28;20100;-82
2021/12/21 00:38:32;;;;;;;20.75;12.93;;;;;;;-3.06;93.76;102140.28;5074823;28;20499;-82
2021/12/21 00:40:59;;;;;;;21.90;12.27;;;;;;;-3.09;94.33;102130.09;5074394;28;20064;-82
2021/12/21 00:43:26;;;;;;;18.00;11.43;;;;;;;-3.03;93.90;102135.09;5074086;28;20094;-82
2021/12/21 00:45:53;;;;;;;23.58;12.07;;;;;;;-2.98;94.37;102127.31;5074354;28;20056;-82
2021/12/21 00:48:27;;;;;;;24.02;12.05;;;;;;;-2.96;94.22;102129.84;5074473;28;20106;-82
2021/12/21 00:50:56;;;;;;;23.75;12.32;;;;;;;-3.06;93.95;102127.47;5074681;28;20071;-82
2021/12/21 00:53:23;;;;;;;19.95;11.35;;;;;;;-3.10;94.00;102142.94;5074912;28;20048;-83
2021/12/21 00:55:54;;;;;;;21.00;11.70;;;;;;;-3.11;94.08;102126.72;5083213;28;20056;-82
2021/12/21 00:58:23;;;;;;;23.80;11.95;;;;;;;-3.13;94.33;102128.47;5074518;28;20087;-82
2021/12/21 01:00:53;;;;;;;20.33;11.57;;;;;;;-3.20;94.31;102124.34;5074441;28;20369;-82
2021/12/21 01:03:21;;;;;;;22.45;11.85;;;;;;;-3.14;94.13;102121.66;5074319;28;20040;-81
2021/12/21 01:05:57;;;;;;;18.58;11.60;;;;;;;-3.23;94.42;102116.72;5074382;28;20049;-80
2021/12/21 01:08:29;;;;;;;22.60;11.65;;;;;;;-3.24;94.45;102122.72;5074017;28;20079;-81
2021/12/21 01:13:52;;;;;;;22.65;12.55;;;;;;;-3.40;94.52;102113.69;5073550;28;20052;-82
2021/12/21 01:16:33;;;;;;;19.90;10.73;;;;;;;-3.33;94.22;102115.25;5067235;28;20052;-81
2021/12/21 01:19:09;;;;;;;25.20;12.60;;;;;;;-3.36;94.71;102110.19;5073806;28;20052;-81
2021/12/21 01:21:41;;;;;;;20.65;12.30;;;;;;;-3.37;94.59;102122.16;5073978;28;20052;-81
2021/12/21 01:24:28;;;;;;;23.95;12.40;;;;;;;-3.37;94.83;102121.31;5073946;28;20051;-81
2021/12/21 01:29:43;;;;;;;21.58;11.90;;;;;;;-3.28;94.54;102117.69;5071112;28;20323;-81
2021/12/21 01:32:17;;;;;;;19.10;11.68;;;;;;;-3.26;94.51;102111.66;5074286;28;20452;-81
2021/12/21 01:34:54;;;;;;;22.63;11.98;;;;;;;-3.27;94.05;102102.31;5076685;28;20143;-80
2021/12/21 01:37:27;;;;;;;18.42;11.98;;;;;;;-3.39;94.54;102105.13;5078828;28;20058;-82
2021/12/21 01:40:12;;;;;;;15.80;9.88;;;;;;;-3.42;94.60;102107.75;5078060;28;20052;-82
2021/12/21 01:43:06;;;;;;;23.73;13.73;;;;;;;-3.41;94.90;102115.41;5077758;28;20049;-82
2021/12/21 01:51:02;;;;;;;20.45;12.77;;;;;;;-3.31;94.77;102110.94;5077844;28;20060;-82
2021/12/21 01:53:32;;;;;;;23.55;12.85;;;;;;;-3.27;94.43;102115.09;5077961;28;20362;-82
2021/12/21 01:56:04;;;;;;;24.98;13.13;;;;;;;-3.30;94.61;102120.28;5083368;28;20048;-82
2021/12/21 01:58:33;;;;;;;24.65;13.40;;;;;;;-3.34;94.42;102121.25;5078786;28;20061;-82
2021/12/21 02:01:03;;;;;;;23.35;13.35;;;;;;;-3.41;94.67;102117.13;5077300;28;20217;-82
2021/12/21 02:03:32;;;;;;;24.08;13.43;;;;;;;-3.49;94.55;102108.75;5076865;28;20360;-82
2021/12/21 02:06:01;;;;;;;19.85;13.20;;;;;;;-3.52;94.70;102111.38;5077079;28;20048;-82
2021/12/21 02:08:31;;;;;;;22.92;13.15;;;;;;;-3.53;95.06;102114.81;5077106;28;20101;-82
2021/12/21 02:11:03;;;;;;;23.70;13.75;;;;;;;-3.45;94.86;102106.09;5077573;28;20076;-82
2021/12/21 02:13:37;;;;;;;29.80;13.48;;;;;;;-3.46;94.91;102091.63;5076841;28;20045;-81
2021/12/21 02:16:04;;;;;;;22.67;12.48;;;;;;;-3.40;94.98;102108.56;5077092;28;20056;-81
2021/12/21 02:18:44;;;;;;;21.88;12.45;;;;;;;-3.48;94.12;102095.09;5076585;28;20472;-82
2021/12/21 02:21:22;;;;;;;25.20;12.45;;;;;;;-3.51;94.14;102095.16;5077240;28;20052;-82
2021/12/21 02:23:51;;;;;;;23.60;12.48;;;;;;;-3.62;94.72;102086.84;5076637;28;20048;-81
2021/12/21 02:29:11;;;;;;;25.42;13.10;;;;;;;-3.67;94.85;102090.31;5072880;28;20098;-81
2021/12/21 02:31:40;;;;;;;20.83;11.73;;;;;;;-3.68;94.88;102090.34;5076857;28;20059;-81
2021/12/21 02:34:08;;;;;;;24.38;12.55;;;;;;;-3.72;95.08;102092.13;5076888;28;20079;-81
2021/12/21 02:36:37;;;;;;;20.58;12.60;;;;;;;-3.79;94.90;102090.59;5076806;28;20102;-81
2021/12/21 02:39:05;;;;;;;23.00;12.75;;;;;;;-3.71;94.63;102090.41;5076439;28;20052;-82
2021/12/21 02:41:32;;;;;;;24.65;12.60;;;;;;;-3.82;94.97;102097.47;5076991;28;20086;-82
2021/12/21 02:43:59;;;;;;;19.23;12.82;;;;;;;-3.78;94.91;102087.13;5076140;28;20409;-82
2021/12/21 02:46:26;;;;;;;24.50;12.00;;;;;;;-3.79;95.37;102090.59;5076188;28;20106;-81
2021/12/21 02:48:54;;;;;;;25.77;12.60;;;;;;;-3.83;94.98;102098.34;5076316;28;20462;-80
2021/12/21 02:51:21;;;;;;;24.65;12.52;;;;;;;-3.94;95.43;102090.84;5076402;28;20060;-81
2021/12/21 02:53:52;;;;;;;18.60;11.57;;;;;;;-4.00;95.10;102085.84;5076148;28;20052;-81
2021/12/21 02:56:20;;;;;;;20.65;12.65;;;;;;;-3.97;95.55;102090.06;5076414;28;20052;-81
2021/12/21 02:58:47;;;;;;;21.45;11.75;;;;;;;-4.17;95.50;102078.47;5075164;28;20135;-81
2021/12/21 03:01:14;;;;;;;21.13;11.60;;;;;;;-3.96;95.29;102097.72;5075897;28;20102;-81
2021/12/21 03:03:41;;;;;;;25.73;12.52;;;;;;;-3.95;95.57;102096.84;5075791;28;20052;-81
2021/12/21 03:06:24;;;;;;;22.02;12.52;;;;;;;-3.79;95.31;102095.69;5075690;28;20049;-81
2021/12/21 03:08:57;;;;;;;24.90;12.90;;;;;;;-3.93;95.17;102086.59;5075626;28;20060;-81
2021/12/21 03:11:37;;;;;;;25.50;13.18;;;;;;;-3.97;95.33;102101.13;5075927;28;20067;-81
2021/12/21 03:14:08;;;;;;;22.08;12.10;;;;;;;-3.98;95.45;102104.56;5075565;28;20076;-81
2021/12/21 03:16:39;;;;;;;21.88;13.27;;;;;;;-4.04;95.60;102099.56;5076129;28;20053;-82
2021/12/21 03:19:08;;;;;;;23.67;12.25;;;;;;;-3.99;95.70;102094.38;5075752;28;20071;-82
2021/12/21 03:21:38;;;;;;;20.10;12.23;;;;;;;-3.99;95.72;102086.69;5075509;28;20078;-82
2021/12/21 03:24:10;;;;;;;25.33;13.65;;;;;;;-3.88;95.78;102079.69;5075293;28;20055;-81
2021/12/21 03:26:37;;;;;;;26.05;13.57;;;;;;;-3.89;95.86;102078.84;5075638;28;20048;-81
2021/12/21 03:29:05;;;;;;;22.83;11.98;;;;;;;-3.88;95.57;102080.53;5075400;28;20102;-81
2021/12/21 03:31:35;;;;;;;22.23;13.48;;;;;;;-3.95;95.68;102084.06;5075671;28;20052;-80
2021/12/21 03:34:05;;;;;;;23.67;12.77;;;;;;;-4.00;95.92;102075.63;5075422;28;20052;-80
2021/12/21 03:36:35;;;;;;;22.42;12.32;;;;;;;-4.13;95.45;102067.31;5075404;28;20044;-81
2021/12/21 03:39:16;;;;;;;21.60;12.05;;;;;;;-4.09;96.01;102079.19;5075192;28;20059;-82
2021/12/21 03:41:49;;;;;;;23.92;12.27;;;;;;;-4.09;95.88;102075.78;5075209;28;20056;-82
2021/12/21 03:44:22;;;;;;;20.80;12.82;;;;;;;-4.12;95.63;102080.94;5074759;28;20501;-82
2021/12/21 03:46:56;;;;;;;20.17;12.05;;;;;;;-4.11;95.97;102087.75;5075189;28;20084;-82
2021/12/21 03:49:53;;;;;;;21.70;12.52;;;;;;;-4.11;95.94;102080.94;5074437;28;20353;-82
2021/12/21 03:52:22;;;;;;;20.63;11.98;;;;;;;-4.16;96.05;102069.09;5074703;28;20072;-81
2021/12/21 03:54:52;;;;;;;24.27;12.38;;;;;;;-4.05;96.54;102072.31;5074779;28;20040;-81
2021/12/21 03:57:21;;;;;;;25.95;13.00;;;;;;;-4.14;96.18;102082.69;5074759;28;20084;-82
2021/12/21 03:59:52;;;;;;;24.55;13.02;;;;;;;-4.12;96.60;102080.94;5074281;28;20047;-82
2021/12/21 04:02:26;;;;;;;19.00;12.70;;;;;;;-4.06;96.76;102089.34;5074567;28;20056;-81
2021/12/21 04:04:54;;;;;;;21.42;11.63;;;;;;;-4.08;96.83;102082.59;5074559;28;20143;-81
2021/12/21 04:07:21;;;;;;;25.98;12.93;;;;;;;-4.04;96.91;102074.84;5074781;28;20132;-81
2021/12/21 04:09:49;;;;;;;24.52;12.32;;;;;;;-4.04;96.50;102076.56;5074388;28;20071;-81
2021/12/21 04:12:17;;;;;;;20.08;11.90;;;;;;;-4.16;96.43;102061.44;5074551;28;20102;-81
2021/12/21 04:14:46;;;;;;;28.48;15.93;;;;;;;-4.28;96.44;102054.00;5075461;28;20074;-81
2021/12/21 04:17:18;;;;;;;59.13;33.75;;;;;;;-4.29;96.57;102065.09;5076089;28;20196;-81
2021/12/21 04:19:45;;;;;;;51.70;39.10;;;;;;;-4.23;96.73;102065.78;5053125;28;20056;-81
2021/12/21 04:22:12;;;;;;;28.75;16.00;;;;;;;-4.11;96.90;102072.41;5055071;28;20056;-80
2021/12/21 04:24:42;;;;;;;24.13;13.85;;;;;;;-4.18;96.94;102064.00;5057501;28;20068;-80
2021/12/21 04:27:12;;;;;;;23.05;13.35;;;;;;;-4.36;96.91;102034.53;5059430;28;20441;-81
2021/12/21 04:29:53;;;;;;;21.27;12.25;;;;;;;-4.36;96.76;102041.34;5074480;28;20286;-80
2021/12/21 04:33:15;;;;;;;25.50;12.85;;;;;;;-4.29;97.14;102026.75;5067582;28;20135;-80
2021/12/21 04:35:42;;;;;;;20.25;12.35;;;;;;;-4.17;97.07;102058.03;5052091;28;20075;-82
2021/12/21 04:38:20;;;;;;;20.70;11.73;;;;;;;-4.29;96.93;102042.09;5073487;28;20048;-81
2021/12/21 04:40:50;;;;;;;20.95;12.25;;;;;;;-4.21;96.91;102060.66;5073381;28;20082;-82
2021/12/21 04:43:17;;;;;;;22.80;11.93;;;;;;;-4.45;96.69;102021.91;5073563;28;20076;-80
2021/12/21 04:45:45;;;;;;;21.80;12.00;;;;;;;-4.31;96.99;102056.59;5073354;28;20052;-81
2021/12/21 04:48:12;;;;;;;20.67;12.50;;;;;;;-4.36;96.56;102057.53;5073720;28;20048;-80
2021/12/21 04:50:42;;;;;;;22.10;11.43;;;;;;;-4.31;97.02;102054.06;5073664;28;20049;-79
2021/12/21 04:53:13;;;;;;;23.50;12.70;;;;;;;-4.27;97.17;102050.56;5065960;28;20064;-80
2021/12/21 04:55:43;;;;;;;17.95;11.80;;;;;;;-4.30;97.06;102050.63;5072415;28;20103;-80
2021/12/21 04:58:10;;;;;;;21.38;11.80;;;;;;;-4.24;97.10;102050.50;5074155;28;20064;-81
2021/12/21 05:00:39;;;;;;;24.88;14.05;;;;;;;-4.25;96.83;102036.88;5073956;28;20434;-81
2021/12/21 05:03:10;;;;;;;20.98;12.40;;;;;;;-4.33;96.94;102051.53;5073486;28;20056;-80
2021/12/21 05:05:37;;;;;;;19.65;11.40;;;;;;;-4.31;96.96;102057.44;5071981;28;20052;-81
2021/12/21 05:31:35;;;;;;;26.63;15.30;;;;;;;-4.32;97.13;102047.25;4974238;28;20496;-49
2021/12/21 05:35:19;;;;;;;21.98;13.02;;;;;;;-4.43;96.98;102052.53;4955256;28;20545;-48
2021/12/21 05:49:11;;;;;;;22.90;12.82;;;;;;;-4.45;97.38;102052.56;4973471;28;20086;-46
2021/12/21 06:28:11;;;;;;;21.60;12.82;;;;;;;-4.71;97.18;102070.00;5005600;28;20562;-47
2021/12/21 06:30:52;;;;;;;22.10;12.88;;;;;;;-4.77;97.27;102070.97;5031030;28;20134;-45
2021/12/21 06:37:03;;;;;;;22.80;12.93;;;;;;;-4.88;97.17;102070.28;5032437;28;20211;-50
2021/12/21 06:42:19;;;;;;;21.13;12.45;;;;;;;-4.76;97.51;102064.16;5029067;28;20053;-50
2021/12/21 06:44:55;;;;;;;24.93;13.70;;;;;;;-4.76;97.24;102066.72;5032517;28;20095;-47
2021/12/21 06:53:08;;;;;;;21.73;13.27;;;;;;;-4.80;97.45;102076.13;5033287;28;20060;-45
2021/12/21 07:01:44;;;;;;;18.55;12.27;;;;;;;-4.71;97.18;102082.78;5032282;28;20057;-45
2021/12/21 07:04:38;;;;;;;23.33;12.05;;;;;;;-4.52;96.60;102081.63;5032724;28;20076;-44
2021/12/21 07:07:16;;;;;;;25.00;13.10;;;;;;;-4.66;96.69;102083.56;5032999;28;20045;-48
2021/12/21 07:09:59;;;;;;;18.95;12.07;;;;;;;-4.65;96.93;102089.50;5032385;28;20049;-46
2021/12/21 07:19:28;;;;;;;26.83;14.18;;;;;;;-4.74;97.11;102100.75;5052228;28;20064;-47
2021/12/21 07:22:46;;;;;;;25.98;12.90;;;;;;;-4.65;97.14;102094.63;5053032;28;20068;-48
2021/12/21 07:43:00;;;;;;;24.27;13.63;;;;;;;-4.79;97.34;102108.47;5010337;28;19922;-45
2021/12/21 07:45:55;;;;;;;29.95;13.57;;;;;;;-4.77;97.30;102105.88;5010697;28;20110;-47
2021/12/21 07:48:24;;;;;;;23.10;13.02;;;;;;;-4.70;97.15;102105.75;5008260;28;20050;-44
2021/12/21 07:51:01;;;;;;;20.30;12.45;;;;;;;-4.56;97.11;102095.31;5010913;28;20050;-51
2021/12/21 07:53:48;;;;;;;27.33;14.38;;;;;;;-4.07;97.32;102092.78;5050872;28;20056;-45
2021/12/21 07:56:58;;;;;;;26.85;14.55;;;;;;;-3.83;97.07;102098.34;5052836;28;20133;-46
2021/12/21 07:59:51;;;;;;;26.17;15.68;;;;;;;-3.57;97.38;102100.38;5052802;28;20048;-47
2021/12/21 08:02:31;;;;;;;21.83;15.27;;;;;;;-3.14;96.19;102093.50;5048231;28;20193;-45
2021/12/21 08:05:04;;;;;;;25.02;13.55;;;;;;;-3.12;95.28;102099.44;5052275;28;20056;-44
2021/12/21 08:07:45;;;;;;;;;;;;;;;-3.06;95.61;102096.75;5052284;28;20073;-45
2021/12/21 08:13:34;;;;;;;22.33;14.20;;;;;;;-2.90;96.12;102094.69;5048306;28;20423;-44
2021/12/21 08:36:37;;;;;;;25.35;12.88;;;;;;;-3.50;95.49;102112.19;5051960;28;20047;-45
2021/12/21 08:39:11;;;;;;;;;;;;;;;-3.50;95.20;102112.19;5051496;28;20595;-48
2021/12/21 08:41:56;;;;;;;27.42;12.65;;;;;;;-3.46;95.81;102106.97;5051590;28;19921;-47
2021/12/21 08:45:01;;;;;;;24.98;13.73;;;;;;;-3.42;95.56;102102.63;5034368;28;20053;-51
2021/12/21 08:51:02;;;;;;;22.60;14.75;;;;;;;-3.35;95.76;102104.22;5053117;28;20507;-47
2021/12/21 08:56:57;;;;;;;28.08;14.40;;;;;;;-3.25;95.61;102100.56;5053105;28;20519;-45
2021/12/21 08:59:25;;;;;;;36.17;19.23;;;;;;;-3.22;95.83;102100.50;5055843;28;20155;-46
2021/12/21 09:05:16;;;;;;;64.85;30.15;;;;;;;-3.13;96.05;102112.25;5055096;28;20056;-44
2021/12/21 09:07:53;;;;;;;79.20;34.53;;;;;;;-3.09;95.70;102117.28;5055193;28;20110;-44
2021/12/21 09:23:41;;;;;;;55.90;26.20;;;;;;;-2.69;94.20;102117.25;4993701;28;20054;-48
2021/12/21 09:26:28;;;;;;;69.63;28.92;;;;;;;-2.64;94.16;102124.81;4993546;28;20133;-47
2021/12/21 09:35:32;;;;;;;39.65;19.00;;;;;;;-2.47;93.69;102122.72;5006947;28;20092;-50
2021/12/21 09:38:00;;;;;;;55.40;25.10;;;;;;;-2.43;93.96;102116.63;5053853;28;20053;-44
2021/12/21 09:40:30;;;;;;;25.50;13.48;;;;;;;-2.31;93.71;102124.88;5053510;28;20191;-48
2021/12/21 09:43:00;;;;;;;22.17;11.73;;;;;;;-2.30;92.32;102126.56;5053791;28;20103;-46
2021/12/21 09:45:28;;;;;;;19.05;11.15;;;;;;;-2.22;92.80;102115.25;5053345;28;20141;-45
2021/12/21 09:47:55;;;;;;;19.00;10.30;;;;;;;-2.08;92.37;102112.34;5052896;28;20151;-47
2021/12/21 09:50:25;;;;;;;22.55;12.02;;;;;;;-2.05;90.92;102117.41;5053137;28;20424;-45
2021/12/21 09:52:54;;;;;;;24.40;16.08;;;;;;;-1.91;91.58;102107.63;5052900;28;20081;-47
2021/12/21 09:55:23;;;;;;;18.00;11.23;;;;;;;-1.82;90.54;102106.50;5052226;28;20049;-45
2021/12/21 09:57:54;;;;;;;15.85;9.13;;;;;;;-1.82;89.27;102098.81;5052299;28;20072;-47
2021/12/21 10:00:40;;;;;;;18.63;9.18;;;;;;;-1.63;88.48;102097.44;5052734;28;20053;-43
2021/12/21 10:06:05;;;;;;;38.65;22.17;;;;;;;-1.73;90.58;102094.28;5051931;28;20049;-44
2021/12/21 10:08:35;;;;;;;29.20;17.63;;;;;;;-1.68;90.20;102105.28;5051401;28;20045;-46
2021/12/21 10:15:08;;;;;;;28.30;17.00;;;;;;;-1.60;90.14;102093.94;5051392;28;20061;-45
2021/12/21 10:22:14;;;;;;;27.23;14.25;;;;;;;-1.38;89.69;102097.59;4921350;28;20126;-45
2021/12/21 10:25:51;;;;;;;17.42;9.40;;;;;;;-1.16;88.11;102090.94;5053193;28;20419;-47
2021/12/21 10:32:04;;;;;;;18.20;10.30;;;;;;;-1.07;89.00;102090.69;5052978;28;20060;-51
2021/12/21 10:35:02;;;;;;;65.88;24.60;;;;;;;-0.97;87.50;102095.53;5052775;28;20044;-51
2021/12/21 10:51:20;;;;;;;17.33;7.50;;;;;;;-0.41;84.68;102076.56;5032616;28;20048;-46
2021/12/21 10:53:49;;;;;;;14.05;7.75;;;;;;;-0.40;84.32;102070.53;5031152;28;20050;-46
2021/12/21 10:56:37;;;;;;;20.77;11.60;;;;;;;-0.43;84.45;102065.50;5031353;28;20377;-48
2021/12/21 10:59:29;;;;;;;13.90;7.68;;;;;;;-0.35;83.48;102060.94;5031385;28;20419;-45
2021/12/21 11:02:11;;;;;;;12.73;7.40;;;;;;;-0.21;82.97;102054.50;5030197;28;20049;-46
2021/12/21 11:05:21;;;;;;;11.93;7.18;;;;;;;-0.23;83.76;102058.84;5031706;28;20584;-45
2021/12/21 11:07:54;;;;;;;14.02;7.53;;;;;;;-0.10;82.90;102055.81;5034243;28;20136;-46
2021/12/21 11:10:26;;;;;;;9.88;6.60;;;;;;;-0.07;83.01;102049.72;5051216;28;20053;-47
2021/12/21 11:12:57;;;;;;;23.30;12.82;;;;;;;-0.12;83.86;102051.59;5052346;28;20041;-51
2021/12/21 11:15:29;;;;;;;13.80;6.75;;;;;;;0.02;82.61;102049.38;5067474;28;20036;-46
2021/12/21 11:17:56;;;;;;;9.25;5.50;;;;;;;0.14;80.69;102048.09;5064742;28;20086;-48
2021/12/21 11:20:24;;;;;;;14.43;6.43;;;;;;;0.10;79.31;102038.81;5062631;28;20053;-46
2021/12/21 11:22:54;;;;;;;8.18;5.10;;;;;;;0.22;79.44;102039.22;5061443;28;20441;-48
2021/12/21 11:25:22;;;;;;;7.72;5.03;;;;;;;0.26;78.97;102037.38;5068075;28;20048;-46
2021/12/21 11:27:50;;;;;;;10.60;5.40;;;;;;;0.40;79.42;102034.31;5053379;28;20111;-45
2021/12/21 11:30:20;;;;;;;9.35;5.60;;;;;;;0.36;77.84;102037.88;5051664;28;20064;-46
2021/12/21 11:32:49;;;;;;;8.70;5.18;;;;;;;0.29;78.67;102030.38;5069596;28;20386;-45
2021/12/21 11:38:08;;;;;;;11.35;5.90;;;;;;;0.36;79.80;102030.16;5072619;28;20052;-47
2021/12/21 11:40:38;;;;;;;9.45;6.03;;;;;;;0.49;78.23;102026.22;5072034;28;20075;-45
2021/12/21 11:43:18;;;;;;;11.05;5.90;;;;;;;0.53;77.44;102020.03;5069595;28;20475;-45
2021/12/21 11:45:54;;;;;;;10.38;5.95;;;;;;;0.51;78.56;102011.53;5071491;28;20051;-46
2021/12/21 11:48:32;;;;;;;13.60;6.20;;;;;;;0.67;77.88;102004.91;5071745;28;20066;-49
2021/12/21 11:51:04;;;;;;;11.52;6.22;;;;;;;0.64;77.04;101993.00;5056688;28;20044;-45
2021/12/21 11:53:33;;;;;;;12.00;6.13;;;;;;;0.68;76.37;101985.97;5071279;28;20071;-45
2021/12/21 11:56:01;;;;;;;9.70;5.88;;;;;;;0.75;76.98;101987.44;5070508;28;20186;-48
2021/12/21 12:02:44;;;;;;;14.50;5.90;;;;;;;0.94;76.55;101978.06;5049981;28;20414;-46
2021/12/21 12:19:11;;;;;;;11.25;6.10;;;;;;;1.18;74.06;101977.97;5069160;28;20137;-50
2021/12/21 12:21:38;;;;;;;8.48;5.70;;;;;;;1.24;73.73;101980.28;5055710;28;20134;-47
2021/12/21 12:24:05;;;;;;;9.35;5.93;;;;;;;1.35;73.56;101982.44;5051082;28;20388;-45
2021/12/21 12:26:36;;;;;;;13.95;6.25;;;;;;;1.33;72.78;101985.06;5065779;28;20114;-51
2021/12/21 12:29:13;;;;;;;8.90;5.43;;;;;;;1.31;72.28;101984.31;5070815;28;20142;-49
2021/12/21 12:31:42;;;;;;;10.20;5.50;;;;;;;1.40;72.95;101967.59;5070637;28;20074;-46
2021/12/21 12:34:10;;;;;;;9.13;5.47;;;;;;;1.50;72.33;101966.28;5070627;28;20398;-46
2021/12/21 12:36:46;;;;;;;11.20;5.80;;;;;;;1.54;72.18;101971.25;5070327;28;20548;-49
2021/12/21 12:39:28;;;;;;;16.00;6.00;;;;;;;1.50;72.55;101963.72;5070344;28;20048;-46
2021/12/21 12:42:00;;;;;;;11.05;5.80;;;;;;;1.46;72.32;101960.41;5070313;28;20048;-47
2021/12/21 12:44:27;;;;;;;12.60;6.13;;;;;;;1.50;72.63;101959.38;5070809;28;20470;-45
2021/12/21 12:46:58;;;;;;;12.88;6.03;;;;;;;1.55;72.48;101956.63;5070126;28;20048;-50
2021/12/21 12:49:29;;;;;;;8.65;5.90;;;;;;;1.62;73.00;101952.88;5070767;28;20052;-47
2021/12/21 12:52:06;;;;;;;8.45;5.43;;;;;;;1.63;72.25;101951.97;5070795;28;20134;-46
2021/12/21 12:54:45;;;;;;;8.40;5.22;;;;;;;1.71;72.37;101956.81;5070516;28;20059;-45
2021/12/21 12:57:39;;;;;;;9.10;5.22;;;;;;;1.69;71.43;101950.88;5070874;28;20486;-47
2021/12/21 13:00:14;;;;;;;9.43;5.45;;;;;;;1.66;71.61;101950.09;5068478;28;20479;-45
2021/12/21 13:02:55;;;;;;;10.55;5.90;;;;;;;1.69;71.36;101948.28;5062039;28;20104;-47
2021/12/21 13:05:32;;;;;;;10.73;6.03;;;;;;;1.86;71.04;101950.97;5060154;28;20052;-45
2021/12/21 13:08:14;;;;;;;10.27;5.60;;;;;;;1.90;70.50;101948.16;5064891;28;20060;-46
2021/12/21 13:10:43;;;;;;;9.32;5.53;;;;;;;1.93;70.21;101944.59;5062145;28;20045;-46
2021/12/21 13:13:10;;;;;;;11.50;5.32;;;;;;;1.84;70.24;101953.63;5069982;28;20518;-48
2021/12/21 13:15:41;;;;;;;10.00;5.93;;;;;;;1.81;70.77;101952.91;5070299;28;20433;-46
2021/12/21 13:18:12;;;;;;;12.02;5.80;;;;;;;1.77;72.28;101961.69;5070463;28;20065;-48
2021/12/21 13:20:42;;;;;;;9.30;6.10;;;;;;;1.80;70.99;101956.41;5072309;28;20054;-47
2021/12/21 13:23:12;;;;;;;12.20;6.35;;;;;;;1.78;71.36;101958.22;5069903;28;20044;-46
2021/12/21 13:25:40;;;;;;;10.52;6.03;;;;;;;1.93;71.47;101942.03;5069365;28;20044;-45
2021/12/21 13:28:12;;;;;;;8.68;5.57;;;;;;;2.08;71.93;101951.66;5069845;28;20053;-45
2021/12/21 13:30:46;;;;;;;6.13;4.10;;;;;;;2.02;70.89;101940.78;5071728;28;20114;-47
2021/12/21 13:33:21;;;;;;;13.50;5.50;;;;;;;1.95;70.61;101947.97;5073338;28;20048;-44
2021/12/21 13:35:51;;;;;;;9.57;5.75;;;;;;;2.01;71.20;101950.28;5071063;28;20041;-45
2021/12/21 13:38:19;;;;;;;9.75;5.47;;;;;;;1.95;70.77;101953.13;5072606;28;20052;-49
2021/12/21 13:40:58;;;;;;;11.63;6.22;;;;;;;2.00;70.70;101941.69;5073416;28;20053;-46
2021/12/21 13:43:25;;;;;;;10.48;6.85;;;;;;;2.05;70.04;101941.47;5073288;28;20492;-51
2021/12/21 13:45:59;;;;;;;13.25;6.50;;;;;;;2.09;70.21;101955.94;5073196;28;20052;-49
2021/12/21 13:55:27;;;;;;;8.65;5.78;;;;;;;2.13;68.77;101941.97;5070775;28;20431;-46
2021/12/21 13:57:58;;;;;;;12.38;6.10;;;;;;;2.09;69.20;101943.03;5072737;28;20113;-46
2021/12/21 14:00:27;;;;;;;14.75;5.78;;;;;;;2.18;68.94;101945.19;5072804;28;20485;-44
2021/12/21 14:03:03;;;;;;;15.05;5.82;;;;;;;2.05;69.78;101935.47;5072714;28;20066;-45
2021/12/21 14:05:42;;;;;;;9.20;5.90;;;;;;;2.11;70.27;101938.63;5072771;28;20062;-45
2021/12/21 14:08:09;;;;;;;11.77;6.50;;;;;;;2.10;70.30;101926.63;5072860;28;20517;-45
2021/12/21 14:10:43;;;;;;;14.38;6.78;;;;;;;2.02;70.04;101933.88;5072558;28;20053;-45
2021/12/21 14:13:10;;;;;;;15.30;6.68;;;;;;;2.03;70.65;101932.97;5073414;28;20394;-46
2021/12/21 14:15:38;;;;;;;12.80;6.30;;;;;;;2.06;70.63;101927.66;5072624;28;20478;-52
2021/12/21 14:18:20;;;;;;;16.83;6.68;;;;;;;2.07;70.68;101939.66;5069884;28;20126;-49
2021/12/21 14:20:50;;;;;;;13.50;6.05;;;;;;;2.16;69.96;101939.25;5072456;28;20052;-50
2021/12/21 14:23:18;;;;;;;12.05;6.20;;;;;;;2.11;69.64;101941.22;5073869;28;20134;-47
2021/12/21 14:25:47;;;;;;;14.93;6.22;;;;;;;2.08;70.64;101953.41;5073804;28;20061;-47
2021/12/21 14:28:15;;;;;;;13.10;6.25;;;;;;;1.98;71.24;101955.56;5073581;28;20044;-45
2021/12/21 14:30:42;;;;;;;12.02;6.28;;;;;;;1.94;71.79;101947.13;5073653;28;20410;-46
2021/12/21 14:33:22;;;;;;;11.63;5.88;;;;;;;2.00;71.64;101944.28;5073341;28;20052;-45
2021/12/21 14:35:51;;;;;;;14.50;6.07;;;;;;;1.92;71.38;101945.50;5073442;28;20561;-46
2021/12/21 14:38:18;;;;;;;11.85;6.70;;;;;;;1.91;72.22;101959.31;5073365;28;20158;-48
2021/12/21 14:40:50;;;;;;;9.75;6.07;;;;;;;1.88;72.04;101954.31;5053804;28;20123;-47
2021/12/21 14:43:30;;;;;;;11.55;6.30;;;;;;;1.87;71.63;101952.66;5069037;28;20052;-48
2021/12/21 14:45:57;;;;;;;9.50;5.70;;;;;;;1.76;72.04;101949.69;5073701;28;20056;-46
2021/12/21 14:48:27;;;;;;;15.85;5.97;;;;;;;1.77;72.14;101941.88;5072899;28;20139;-46
2021/12/21 14:51:07;;;;;;;10.82;5.57;;;;;;;1.69;72.70;101945.72;5066351;28;20380;-47
2021/12/21 14:53:45;;;;;;;11.40;5.90;;;;;;;1.61;73.15;101946.88;5072789;28;20087;-47
2021/12/21 14:56:25;;;;;;;10.05;6.22;;;;;;;1.70;73.17;101939.66;5073548;28;20133;-44
2021/12/21 14:58:57;;;;;;;10.32;6.18;;;;;;;1.56;73.45;101946.22;5072799;28;20052;-50
2021/12/21 15:01:25;;;;;;;12.20;5.93;;;;;;;1.46;73.63;101936.38;5073010;28;20054;-47
2021/12/21 15:03:52;;;;;;;10.10;5.95;;;;;;;1.33;74.64;101941.25;5072557;28;20365;-46
2021/12/21 15:06:20;;;;;;;10.98;6.10;;;;;;;1.20;74.88;101945.22;5072819;28;20143;-47
2021/12/21 15:08:48;;;;;;;11.02;6.35;;;;;;;1.06;75.67;101932.06;5073363;28;20086;-44
2021/12/21 15:11:24;;;;;;;13.40;6.28;;;;;;;1.18;75.55;101942.72;5072938;28;20101;-47
2021/12/21 15:13:51;;;;;;;12.85;6.30;;;;;;;1.13;75.26;101942.06;5072988;28;20044;-45
2021/12/21 15:16:23;;;;;;;12.18;5.97;;;;;;;1.24;74.81;101936.47;5072560;28;20052;-47
2021/12/21 15:18:50;;;;;;;14.75;6.45;;;;;;;1.02;75.82;101946.81;5072781;28;20121;-44
2021/12/21 15:21:17;;;;;;;10.05;5.72;;;;;;;1.05;75.75;101941.53;5072554;28;20143;-49
2021/12/21 15:23:44;;;;;;;10.27;5.78;;;;;;;0.86;76.45;101938.88;5065934;28;20044;-45
2021/12/21 15:26:11;;;;;;;10.30;6.32;;;;;;;0.81;76.39;101948.53;5072431;28;20049;-50
2021/12/21 15:29:18;;;;;;;18.85;7.20;;;;;;;0.73;77.13;101950.56;5072330;28;20056;-46
2021/12/21 15:31:46;;;;;;;11.63;5.80;;;;;;;0.68;78.80;101952.50;5061724;28;20049;-45
2021/12/21 15:34:26;;;;;;;13.18;6.60;;;;;;;0.77;77.06;101939.25;5053131;28;20140;-47
2021/12/21 15:36:53;;;;;;;12.88;5.95;;;;;;;0.70;77.46;101942.97;5052854;28;20060;-44
2021/12/21 15:39:28;;;;;;;10.65;6.18;;;;;;;0.57;77.56;101952.91;5054943;28;20139;-45
2021/12/21 15:41:57;;;;;;;13.55;6.22;;;;;;;0.46;78.37;101952.50;5053311;28;20079;-49
2021/12/21 15:44:29;;;;;;;17.50;7.53;;;;;;;0.40;78.99;101954.47;5053363;28;20107;-46